Tiempo atmosférico en la estación meteorológica de El Maíllo, Salamanca (1027 m.)



Fecha
DESCASC
Temp. máxima en grados centígrados (hora)
DESCASC
Temp. mínima en grados centígrados (hora)
DESCASC
Temp. media en grados centígrados
DESCASC
Racha de viento máxima en m/sg (hora)
DESCASC
Velocidad máxima media en intervalos de 10 minutos(hora)
DESCASC
Precipitaciones diarias en mm
DESCASC
Precipitaciones de 00:00 a 06:00 en mm
DESCASC
Precipitaciones de 06:00 a 12:00 en mm
DESCASC
Precipitaciones de 12:00 a 18:00 en mm
DESCASC
Precipitaciones de 18:00 a 24:00 en mm
DESCASC
20-09-2018 27.7 (15:10) 14 (06:30) 20.9 8.89 (13:50) 5.56 (18:10) 0 0 0 0 0
21-09-2018 26.4 (17:20) 11.5 (07:00) 18.9 6.94 (16:10) 5 (05:00) 0 0 0 0 0
22-09-2018 29.2 (16:40) 12.7 (02:30) 21 7.22 (13:30) 5.83 (08:20) 0 0 0 0 0
23-09-2018 30.3 (17:00) 15.3 (05:00) 22.8 7.5 (15:50) 4.17 (02:00) 0 0 0 0 0
24-09-2018 28.7 (17:10) 15.5 (00:00) 22.1 8.33 (23:00) 5.83 (23:50) 0 0 0 0 0
25-09-2018 28.1 (17:10) 9.2 (00:00) 18.7 6.67 (02:00) 4.72 (01:00) 0 0 0 0 0
26-09-2018 27.2 (15:10) 14.5 (00:00) 20.9 15 (18:30) 10.28 (18:30) 0 0 0 0 0
27-09-2018 26.4 (16:20) 14.8 (00:00) 20.6 10.56 (00:50) 8.33 (00:50) 0 0 0 0 0
28-09-2018 26.8 (16:30) 12.6 (00:00) 19.7 7.22 (14:40) 4.72 (00:20) 0 0 0 0 0
29-09-2018 26.6 (17:50) 12.5 (00:00) 19.6 6.67 (15:20) 4.44 (08:20) 0 0 0 0 0
30-09-2018 26.4 (15:30) 13.2 (00:00) 19.8 7.78 (17:10) 5.83 (06:30) 0 0 0 0 0
01-10-2018 21.1 (16:40) 8.3 (00:00) 14.7 11.67 (16:00) 7.78 (15:50) 0 0 0 0 0
02-10-2018 21.9 (17:10) 5.6 (00:00) 13.7 11.11 (02:50) 8.33 (02:40) 0 0 0 0 0
03-10-2018 25.4 (16:40) 9.7 (00:00) 17.5 7.22 (16:20) 5.83 (01:00) 0 0 0 0 0
04-10-2018 26.3 (17:00) 10.4 (00:00) 18.3 6.11 (17:10) 5 (07:50) 0 0 0 0 0
05-10-2018 25.8 (15:10) 11.3 (06:40) 18.5 9.17 (17:10) 5.83 (01:20) 0 0 0 0 0
06-10-2018 24.4 (15:50) 9.5 (23:59) 16.9 11.39 (15:10) 7.5 (18:10) 0 0 0 0 0
07-10-2018 16.2 (16:50) 4.8 (07:30) 10.5 11.39 (06:50) 8.33 (10:50) 0 0 0 0 0
08-10-2018 18 (16:40) 6.3 (05:50) 12.2 11.67 (03:10) 7.5 (10:50) 0 0 0 0 0
09-10-2018 18.7 (16:30) 5.5 (08:20) 12.1 6.94 (20:30) 5 (20:30) 0 0 0 0 0
10-10-2018 17.2 (14:50) 10.4 (00:00) 13.8 17.78 (21:10) 11.94 (21:10) 0 0 0 0 0
11-10-2018 17.3 (15:20) 12.7 (06:10) 15 19.17 (04:00) 11.11 (04:00) 0.8 0.2 0.2 0.2 0.2
12-10-2018 19.3 (15:50) 11.9 (00:00) 15.6 16.67 (03:30) 10.28 (03:30) 0 0 0 0 0
13-10-2018 22.1 (15:20) 15.3 (00:00) 18.7 22.5 (23:59) 11.67 (23:59) 0 0 0 0 0
14-10-2018 18.6 (00:00) 5.9 (00:00) 12.3 21.39 (00:20) 13.06 (02:10) 6.6 6 0.4 0.2 0
15-10-2018 13.2 (16:40) 5.5 (02:50) 9.3 14.44 (10:50) 10.28 (13:50) 3.2 0 3 0 0.2
16-10-2018 14.5 (15:50) 7.1 (00:00) 10.8 6.11 (15:50) 3.89 (07:30) 0 0 0 0 0
17-10-2018 18.2 (15:50) 6.5 (00:00) 12.4 9.72 (12:50) 5 (16:10) 0 0 0 0 0
18-10-2018 17.3 (15:40) 9.5 (00:00) 13.4 11.67 (16:40) 7.22 (16:10) 8.4 1.6 6.8 0 0
19-10-2018 13.2 (22:10) 10.6 (00:00) 11.9 12.22 (06:00) 8.06 (05:50) 4 0 1 2.2 0.8

Gráficas

Temp. máximas Temp. mínimas Temp. medias Precipitaciones Rachas de viento máximas Velocidades máximas media en intervalos de 10 minutos

Datos horarios

Fecha y hora oficial Temperatura (ºC) Velocidad del viento (km/h) Dirección del viento Racha (km/h) Dirección de racha Precipitación (mm) Presión (hPa) Tendencia (hPa) Humedad (%)
2018-10-19 23:00:00 12.8 26 Nordeste 42 Este 0 -- -- 91
2018-10-19 22:00:00 13.1 26 Este 39 Este 0 -- -- 88
2018-10-19 21:00:00 12.8 18 Nordeste 30 Este 0.2 -- -- 93
2018-10-19 20:00:00 12.5 14 Este 23 Este 0 -- -- 96
2018-10-19 19:00:00 12.6 16 Este 33 Este 0.6 -- -- 97
2018-10-19 18:00:00 12.6 15 Este 28 Nordeste 0.6 -- -- 98
2018-10-19 17:00:00 12.7 19 Nordeste 30 Nordeste 0.2 -- -- 98
2018-10-19 16:00:00 12.2 14 Nordeste 24 Nordeste 0.8 -- -- 98
2018-10-19 15:00:00 11.8 17 Nordeste 31 Nordeste 0.4 -- -- 97
2018-10-19 14:00:00 11.8 13 Nordeste 31 Nordeste 0 -- -- 98
2018-10-19 13:00:00 11.4 18 Nordeste 30 Nordeste 0.2 -- -- 98
2018-10-19 12:00:00 11.2 17 Nordeste 30 Nordeste 0.4 -- -- 97
2018-10-19 11:00:00 12 21 Nordeste 32 Nordeste 0 -- -- 95
2018-10-19 10:00:00 11.4 17 Nordeste 33 Nordeste 0 -- -- 97
2018-10-19 09:00:00 11.1 21 Nordeste 41 Nordeste 0.4 -- -- 97
2018-10-19 08:00:00 11.1 23 Nordeste 39 Este 0.2 -- -- 95
2018-10-19 07:00:00 11.1 23 Nordeste 40 Nordeste 0 -- -- 96
2018-10-19 06:00:00 11.3 26 Nordeste 44 Nordeste 0 -- -- 93
2018-10-19 05:00:00 11 21 Nordeste 31 Este 0 -- -- 95
2018-10-19 04:00:00 10.6 17 Nordeste 26 Nordeste 0 -- -- 95
2018-10-19 03:00:00 10.9 15 Nordeste 30 Nordeste 0 -- -- 93
2018-10-19 02:00:00 11.2 16 Nordeste 27 Nordeste 0 -- -- 90
2018-10-19 01:00:00 11.5 17 Este 31 Este 0 -- -- 87
2018-10-19 00:00:00 11.9 17 Nordeste 30 Nordeste 0 -- -- 86
2018-10-18 23:00:00 12.5 17 Nordeste 28 Nordeste 0 -- -- 83
2018-10-18 22:00:00 13 14 Nordeste 28 Nordeste 0 -- -- 78
2018-10-18 21:00:00 14.1 19 Nordeste 34 Nordeste 0 -- -- 71
2018-10-18 20:00:00 14.5 11 Nordeste 24 Nordeste 0 -- -- 67
2018-10-18 19:00:00 15.4 19 Nordeste 32 Nordeste 0 -- -- 63
2018-10-18 18:00:00 15.7 15 Nordeste 37 Nordeste 0 -- -- 64
2018-10-18 17:00:00 16 21 Nordeste 42 Nordeste 0 -- -- 63
2018-10-18 16:00:00 16.5 23 Nordeste 35 Nordeste 0 -- -- 64
2018-10-18 15:00:00 15.7 23 Nordeste 33 Nordeste 0 -- -- 70
2018-10-18 14:00:00 14.8 11 Nordeste 23 Nordeste 0 -- -- 79
2018-10-18 13:00:00 13.9 13 Nordeste 18 Este 0 -- -- 80
2018-10-18 12:00:00 12.2 10 Este 21 Este 0 -- -- 86
2018-10-18 11:00:00 10.6 14 Este 19 Este 0 -- -- 93
2018-10-18 10:00:00 10.1 9 Este 13 Este 0 -- -- 97
2018-10-18 09:00:00 9.5 6 Nordeste 12 Nordeste 0 -- -- 97
2018-10-18 08:00:00 9.9 7 Norte 16 Sudeste 1.6 -- -- 95
2018-10-18 07:00:00 10 14 Sudeste 24 Sudeste 5.2 -- -- 96
2018-10-18 06:00:00 10.5 5 Nordeste 8 Nordeste 1 -- -- 98
2018-10-18 05:00:00 10.5 3 Nordeste 9 Norte 0 -- -- 97
2018-10-18 04:00:00 10.8 5 Norte 8 Norte 0 -- -- 96
2018-10-18 03:00:00 10.7 0 Calma 8 Nordeste 0 -- -- 94
2018-10-18 02:00:00 11.3 3 Este 8 Nordeste 0.2 -- -- 94
2018-10-18 01:00:00 11.1 3 Este 7 Sudeste 0.4 -- -- 93
2018-10-18 00:00:00 10.4 6 Sudeste 8 Sudeste 0 -- -- 92
2018-10-17 23:00:00 10.5 5 Sudeste 9 Sudeste 0 -- -- 88
2018-10-17 22:00:00 12.1 5 Oeste 17 Oeste 0 -- -- 82
2018-10-17 21:00:00 13.6 7 Sudoeste 18 Sur 0 -- -- 70
2018-10-17 20:00:00 14.1 12 Sudoeste 24 Sur 0 -- -- 69
2018-10-17 19:00:00 14.7 12 Sudoeste 27 Sudoeste 0 -- -- 66
2018-10-17 18:00:00 16.2 16 Sudoeste 29 Sudoeste 0 -- -- 61
2018-10-17 17:00:00 17.7 15 Sur 28 Sur 0 -- -- 54
2018-10-17 16:00:00 17.9 16 Sur 30 Sur 0 -- -- 54
2018-10-17 15:00:00 17.7 14 Sudoeste 26 Sur 0 -- -- 57
2018-10-17 14:00:00 17.8 12 Sudoeste 22 Sudoeste 0 -- -- 60
2018-10-17 13:00:00 16.9 8 Sudoeste 35 Sudoeste 0 -- -- 62
2018-10-17 12:00:00 14.5 12 Noroeste 15 Noroeste 0 -- -- 77
2018-10-17 11:00:00 12.8 7 Noroeste 10 Oeste 0 -- -- 85
2018-10-17 10:00:00 9.9 5 Sur 16 Sur 0 -- -- 88
2018-10-17 09:00:00 7.6 14 Sur 17 Sur 0 -- -- 93
2018-10-17 08:00:00 6.9 14 Sur 18 Sudeste 0 -- -- 95
2018-10-17 07:00:00 6.9 10 Sur 15 Sudeste 0 -- -- 95
2018-10-17 06:00:00 7.4 8 Sur 18 Sur 0 -- -- 93
2018-10-17 05:00:00 7.6 14 Sur 17 Sur 0 -- -- 95
2018-10-17 04:00:00 7.3 6 Sur 14 Sur 0 -- -- 96
2018-10-17 03:00:00 7.4 13 Sur 15 Sudeste 0 -- -- 94
2018-10-17 02:00:00 7.9 14 Sur 18 Sur 0 -- -- 95
2018-10-17 01:00:00 6.9 9 Sudeste 14 Sur 0 -- -- 96
2018-10-17 00:00:00 7.1 9 Sudeste 15 Sudeste 0 -- -- 94
2018-10-16 23:00:00 7.7 9 Sur 13 Sur 0 -- -- 93
2018-10-16 22:00:00 9 10 Este 12 Este 0 -- -- 90
2018-10-16 21:00:00 9.3 8 Este 10 Este 0 -- -- 90
2018-10-16 20:00:00 11 5 Este 11 Norte 0 -- -- 81
2018-10-16 19:00:00 13.6 9 Nordeste 14 Norte 0 -- -- 73
2018-10-16 18:00:00 13.6 8 Nordeste 19 Nordeste 0 -- -- 72
2018-10-16 17:00:00 13.9 12 Nordeste 21 Nordeste 0 -- -- 72
2018-10-16 16:00:00 13.9 10 Nordeste 22 Nordeste 0 -- -- 73
2018-10-16 15:00:00 12.8 10 Nordeste 18 Nordeste 0 -- -- 77
2018-10-16 14:00:00 11.8 6 Norte 15 Norte 0 -- -- 85
2018-10-16 13:00:00 10.4 11 Nordeste 20 Este 0 -- -- 97
2018-10-16 12:00:00 9.6 7 Norte 17 Nordeste 0 -- -- 98
2018-10-16 11:00:00 9 11 Nordeste 16 Este 0 -- -- 98
2018-10-16 10:00:00 9.2 9 Norte 14 Norte 0 -- -- 98
2018-10-16 09:00:00 9 7 Nordeste 15 Nordeste 0 -- -- 98
2018-10-16 08:00:00 9.1 5 Nordeste 18 Este 0 -- -- 98
2018-10-16 07:00:00 9.4 9 Nordeste 15 Nordeste 0 -- -- 98
2018-10-16 06:00:00 9.7 9 Nordeste 13 Nordeste 0 -- -- 98
2018-10-16 05:00:00 9.6 9 Nordeste 13 Nordeste 0 -- -- 97
2018-10-16 04:00:00 9.7 7 Nordeste 11 Nordeste 0 -- -- 98
2018-10-16 03:00:00 9.6 6 Este 10 Nordeste 0 -- -- 97
2018-10-16 02:00:00 9.6 6 Nordeste 9 Este 0 -- -- 96
2018-10-16 01:00:00 9.6 6 Este 9 Este 0 -- -- 96
2018-10-16 00:00:00 9.7 2 Este 6 Este 0.2 -- -- 96
2018-10-15 23:00:00 9 4 Sudeste 9 Sudeste 0 -- -- 94
2018-10-15 22:00:00 9.5 5 Este 10 Este 0 -- -- 93
2018-10-15 21:00:00 10.4 6 Este 8 Sur 0 -- -- 92
2018-10-15 20:00:00 10.7 5 Sur 22 Sudeste 0 -- -- 85
2018-10-15 19:00:00 11 17 Sudeste 26 Sudeste 0 -- -- 83
2018-10-15 18:00:00 11.5 20 Sudeste 29 Sudeste 0 -- -- 80
2018-10-15 17:00:00 12.4 13 Sudoeste 30 Sudeste 0 -- -- 78
2018-10-15 16:00:00 11.8 21 Sudeste 39 Sudeste 0 -- -- 78
2018-10-15 15:00:00 11.3 24 Sur 48 Sur 0 -- -- 80
2018-10-15 14:00:00 10.8 35 Sudeste 51 Sur 0 -- -- 83
2018-10-15 13:00:00 10.9 29 Sur 47 Sur 0 -- -- 84
2018-10-15 12:00:00 9.5 32 Sur 48 Sur 1.4 -- -- 87
2018-10-15 11:00:00 9.5 24 Sur 52 Sur 1.2 -- -- 89
2018-10-15 10:00:00 9.4 28 Sur 50 Sur 0.4 -- -- 86
2018-10-15 09:00:00 9.9 27 Sur 45 Oeste 0 -- -- 83
2018-10-15 08:00:00 9.2 21 Sur 37 Sudoeste 0 -- -- 73
2018-10-15 07:00:00 6.9 4 Sudeste 15 Este 0 -- -- 70
2018-10-15 06:00:00 7.1 0 Calma 16 Sur 0 -- -- 68
2018-10-15 05:00:00 6.3 13 Sudoeste 19 Sudoeste 0 -- -- 73
2018-10-15 04:00:00 5.9 10 Sudoeste 16 Sudoeste 0 -- -- 84
2018-10-15 03:00:00 5.6 10 Sur 17 Sudoeste 0 -- -- 91
2018-10-15 02:00:00 5.6 13 Sudoeste 21 Sudoeste 0 -- -- 92
2018-10-15 01:00:00 6.3 12 Sudoeste 19 Oeste 0 -- -- 90
2018-10-15 00:00:00 7.1 10 Sudoeste 25 Sudoeste 0 -- -- 89
2018-10-14 23:00:00 7.9 15 Sudoeste 23 Sudoeste 0 -- -- 88
2018-10-14 22:00:00 8.2 9 Sudoeste 17 Oeste 0 -- -- 81
2018-10-14 21:00:00 8.7 12 Oeste 25 Oeste 0 -- -- 79
2018-10-14 20:00:00 9.7 10 Oeste 31 Oeste 0 -- -- 77
2018-10-14 19:00:00 10.3 17 Oeste 31 Oeste 0 -- -- 73
2018-10-14 18:00:00 10 18 Noroeste 31 Oeste 0 -- -- 76
2018-10-14 17:00:00 10.2 20 Noroeste 35 Noroeste 0 -- -- 74
2018-10-14 16:00:00 10 18 Noroeste 39 Oeste 0 -- -- 78
2018-10-14 15:00:00 9 23 Oeste 41 Noroeste 0.2 -- -- 85
2018-10-14 14:00:00 10.4 24 Noroeste 39 Oeste 0 -- -- 71
2018-10-14 13:00:00 8.1 21 Oeste 42 Noroeste 0 -- -- 84
2018-10-14 12:00:00 7.3 22 Oeste 35 Oeste 0 -- -- 86
2018-10-14 11:00:00 7 22 Oeste 36 Oeste 0.2 -- -- 85
2018-10-14 10:00:00 6 19 Oeste 36 Oeste 0 -- -- 95
2018-10-14 09:00:00 5.9 20 Oeste 42 Oeste 0 -- -- 96
2018-10-14 08:00:00 6.9 31 Oeste 47 Oeste 0 -- -- 95
2018-10-14 07:00:00 8.3 32 Oeste 51 Oeste 0.2 -- -- 95
2018-10-14 06:00:00 9.3 14 Sudoeste 27 Oeste 0 -- -- 95
2018-10-14 05:00:00 10.1 19 Oeste 32 Oeste 0 -- -- 91
2018-10-14 04:00:00 11.9 20 Sudoeste 40 Sudoeste 1 -- -- 90
2018-10-14 03:00:00 13.6 27 Sur 77 Sudeste 2 -- -- 89
2018-10-14 02:00:00 14.4 40 Sur 77 Sur 2.8 -- -- 82
2018-10-14 01:00:00 16.5 30 Sur 77 Sur 0.2 -- -- 67
2018-10-14 00:00:00 18.6 42 Sur 81 Sur 0 -- -- 57
2018-10-13 23:00:00 19.3 30 Sur 69 Sur 0 -- -- 54
2018-10-13 22:00:00 19.6 23 Sur 69 Sudeste 0 -- -- 55
2018-10-13 21:00:00 19.3 22 Sudeste 43 Sur 0 -- -- 59
2018-10-13 20:00:00 19.3 19 Sudeste 54 Sur 0 -- -- 60
2018-10-13 19:00:00 19.9 30 Sur 51 Sur 0 -- -- 60
2018-10-13 18:00:00 20.6 24 Sur 43 Sudoeste 0 -- -- 59
2018-10-13 17:00:00 21.2 25 Sur 59 Sur 0 -- -- 58
2018-10-13 16:00:00 21.3 31 Sudeste 49 Sudeste 0 -- -- 55
2018-10-13 15:00:00 21.9 13 Sudeste 33 Sudeste 0 -- -- 54
2018-10-13 14:00:00 21.5 19 Este 35 Sudeste 0 -- -- 55
2018-10-13 13:00:00 20.8 20 Sudeste 37 Sudeste 0 -- -- 57
2018-10-13 12:00:00 21 13 Este 37 Sur 0 -- -- 51
2018-10-13 11:00:00 19 15 Sur 38 Este 0 -- -- 65
2018-10-13 10:00:00 17 10 Este 35 Nordeste 0 -- -- 71
2018-10-13 09:00:00 16.2 6 Noroeste 24 Este 0 -- -- 75
2018-10-13 08:00:00 16 6 Sudeste 27 Sur 0 -- -- 76
2018-10-13 07:00:00 15.3 7 Noroeste 17 Norte 0 -- -- 73
2018-10-13 06:00:00 15.6 5 Norte 34 Sur 0 -- -- 72
2018-10-13 05:00:00 15.6 28 Sur 53 Sudeste 0 -- -- 75
2018-10-13 04:00:00 15.7 32 Sudeste 49 Sudeste 0 -- -- 74
2018-10-13 03:00:00 15.7 17 Sudeste 35 Sudeste 0 -- -- 76
2018-10-13 02:00:00 15.8 14 Sudeste 39 Sudeste 0 -- -- 73
2018-10-13 01:00:00 16.1 19 Sudeste 38 Sudeste 0 -- -- 72
2018-10-13 00:00:00 16 20 Sudeste 33 Sudeste 0 -- -- 70
2018-10-12 23:00:00 15.9 14 Sur 24 Sudeste 0 -- -- 69
2018-10-12 22:00:00 15.5 13 Sudeste 18 Sudeste 0 -- -- 72
2018-10-12 21:00:00 15.6 6 Norte 18 Sudeste 0 -- -- 70
2018-10-12 20:00:00 16 8 Este 24 Sudoeste 0 -- -- 69
2018-10-12 19:00:00 17 17 Sudoeste 25 Sudoeste 0 -- -- 67
2018-10-12 18:00:00 17.9 13 Sur 24 Sudoeste 0 -- -- 62
2018-10-12 17:00:00 18.4 15 Sudoeste 27 Sudoeste 0 -- -- 58
2018-10-12 16:00:00 19 10 Sudoeste 23 Sur 0 -- -- 55
2018-10-12 15:00:00 18.6 14 Sur 25 Sur 0 -- -- 59
2018-10-12 14:00:00 18.9 15 Sur 31 Sur 0 -- -- 54
2018-10-12 13:00:00 18.3 12 Sudoeste 32 Sudoeste 0 -- -- 51
2018-10-12 12:00:00 16 19 Sudoeste 45 Sur 0 -- -- 61
2018-10-12 11:00:00 14.5 28 Sur 45 Sur 0 -- -- 69
2018-10-12 10:00:00 12.9 19 Sudoeste 32 Sudoeste 0 -- -- 75
2018-10-12 09:00:00 12.4 15 Sudoeste 38 Sudoeste 0 -- -- 72
2018-10-12 08:00:00 12.2 23 Sur 38 Sur 0 -- -- 74
2018-10-12 07:00:00 12 19 Sur 41 Sur 0 -- -- 73
2018-10-12 06:00:00 12.5 23 Sur 38 Sur 0 -- -- 76
2018-10-12 05:00:00 13.3 28 Sur 51 Sur 0 -- -- 71
2018-10-12 04:00:00 13.6 30 Sur 60 Sur 0 -- -- 73
2018-10-12 03:00:00 13.5 30 Sur 53 Sur 0 -- -- 77
2018-10-12 02:00:00 13.5 26 Sudoeste 50 Sur 0 -- -- 76
2018-10-12 01:00:00 13.5 21 Sudoeste 39 Sur 0 -- -- 78
2018-10-12 00:00:00 13.2 17 Sudoeste 31 Sur 0 -- -- 78
2018-10-11 23:00:00 13.3 12 Sudoeste 39 Sudoeste 0 -- -- 77
2018-10-11 22:00:00 13.8 20 Sudoeste 39 Sudoeste 0 -- -- 78
2018-10-11 21:00:00 14 21 Sudoeste 50 Sudoeste 0 -- -- 82
2018-10-11 20:00:00 14.2 20 Sudoeste 35 Sudoeste 0 -- -- 83
2018-10-11 19:00:00 14.4 19 Sudoeste 38 Sur 0.2 -- -- 86
2018-10-11 18:00:00 14.8 17 Sudoeste 33 Sudoeste 0 -- -- 87
2018-10-11 17:00:00 15.5 18 Sudoeste 35 Sudoeste 0.2 -- -- 90
2018-10-11 16:00:00 16.4 17 Sur 36 Sur 0 -- -- 79
2018-10-11 15:00:00 16.8 21 Sudoeste 38 Sur 0 -- -- 74
2018-10-11 14:00:00 16 22 Sur 41 Sur 0 -- -- 75
2018-10-11 13:00:00 16.2 28 Sur 48 Sur 0 -- -- 74
2018-10-11 12:00:00 15.7 31 Sur 50 Sur 0 -- -- 71
2018-10-11 11:00:00 14.9 25 Sur 49 Sudoeste 0 -- -- 75
2018-10-11 10:00:00 14.3 33 Sur 55 Sur 0 -- -- 81
2018-10-11 09:00:00 13.3 34 Sudoeste 54 Sur 0 -- -- 88
2018-10-11 08:00:00 13.3 31 Sur 52 Sudoeste 0.2 -- -- 87
2018-10-11 07:00:00 12.9 28 Sur 50 Sur 0 -- -- 89
2018-10-11 06:00:00 12.8 23 Sur 49 Sudoeste 0 -- -- 89
2018-10-11 05:00:00 13.2 26 Sudoeste 58 Sur 0.2 -- -- 86
2018-10-11 04:00:00 14 40 Sur 69 Sudoeste 0 -- -- 79
2018-10-11 03:00:00 14.3 33 Sur 58 Sudoeste 0 -- -- 76
2018-10-11 02:00:00 14.6 24 Sur 55 Sur 0 -- -- 72
2018-10-11 01:00:00 14.9 35 Sur 55 Sur 0 -- -- 70
2018-10-11 00:00:00 15.1 32 Sur 54 Sur 0 -- -- 68
2018-10-10 23:00:00 15 24 Sur 57 Sur 0 -- -- 63
2018-10-10 22:00:00 15.2 39 Sur 64 Sur 0 -- -- 61
2018-10-10 21:00:00 15.3 39 Sur 58 Sur 0 -- -- 60
2018-10-10 20:00:00 14.9 19 Sur 40 Sur 0 -- -- 61
2018-10-10 19:00:00 15.5 20 Sur 41 Sur 0 -- -- 59
2018-10-10 18:00:00 17.1 20 Sur 41 Sur 0 -- -- 53
2018-10-10 17:00:00 16.5 26 Sur 49 Sudoeste 0 -- -- 57
2018-10-10 16:00:00 15.4 15 Sur 38 Sudoeste 0 -- -- 64
2018-10-10 15:00:00 16.9 22 Sudoeste 42 Sudoeste 0 -- -- 57
2018-10-10 14:00:00 16.5 22 Sur 40 Sudoeste 0 -- -- 60
2018-10-10 13:00:00 15.6 25 Sur 44 Sur 0 -- -- 62
2018-10-10 12:00:00 14.2 30 Sudeste 45 Sudeste 0 -- -- 66
2018-10-10 11:00:00 13.9 26 Sur 44 Sur 0 -- -- 66
2018-10-10 10:00:00 13 27 Sur 39 Sur 0 -- -- 69
2018-10-10 09:00:00 11.6 22 Sur 36 Sur 0 -- -- 72
2018-10-10 08:00:00 10.4 18 Sur 24 Sur 0 -- -- 68
2018-10-10 07:00:00 10.8 15 Sur 21 Sur 0 -- -- 67
2018-10-10 06:00:00 10.9 16 Sudeste 21 Sur 0 -- -- 65
2018-10-10 05:00:00 11.4 17 Sudeste 22 Sudeste 0 -- -- 61
2018-10-10 04:00:00 11.7 12 Sudeste 18 Sudeste 0 -- -- 57
2018-10-10 03:00:00 11.1 14 Sudeste 18 Sudeste 0 -- -- 58
2018-10-10 02:00:00 12 13 Sudeste 19 Sudeste 0 -- -- 54
2018-10-10 01:00:00 11.9 10 Sudeste 17 Sudeste 0 -- -- 53
2018-10-10 00:00:00 12.5 13 Sudeste 18 Sudeste 0 -- -- 54
2018-10-09 23:00:00 12.6 11 Sudeste 21 Sur 0 -- -- 55
2018-10-09 22:00:00 13.8 9 Sur 24 Sur 0 -- -- 52
2018-10-09 21:00:00 14.8 14 Sur 25 Sur 0 -- -- 50
2018-10-09 20:00:00 15.6 10 Sudoeste 19 Sudoeste 0 -- -- 48
2018-10-09 19:00:00 17 10 Oeste 15 Oeste 0 -- -- 43
2018-10-09 18:00:00 18 3 Nordeste 10 Noroeste 0 -- -- 39
2018-10-09 17:00:00 18.4 7 Norte 14 Este 0 -- -- 39
2018-10-09 16:00:00 18 6 Norte 13 Noroeste 0 -- -- 40
2018-10-09 15:00:00 16.5 6 Norte 18 Noroeste 0 -- -- 44
2018-10-09 14:00:00 16.7 6 Norte 18 Oeste 0 -- -- 44
2018-10-09 13:00:00 16.1 5 Norte 18 Oeste 0 -- -- 48
2018-10-09 12:00:00 14.5 9 Noroeste 13 Noroeste 0 -- -- 53
2018-10-09 11:00:00 12.9 5 Norte 10 Noroeste 0 -- -- 58
2018-10-09 10:00:00 10.4 4 Sur 14 Sudeste 0 -- -- 66
2018-10-09 09:00:00 6.4 13 Sur 15 Sur 0 -- -- 78
2018-10-09 08:00:00 6.1 10 Sur 18 Sur 0 -- -- 77
2018-10-09 07:00:00 6.2 16 Sur 18 Sudeste 0 -- -- 76
2018-10-09 06:00:00 7.1 14 Sur 20 Sur 0 -- -- 71
2018-10-09 05:00:00 6.4 16 Sur 20 Sur 0 -- -- 75
2018-10-09 04:00:00 6.3 12 Sur 17 Sur 0 -- -- 77
2018-10-09 03:00:00 7.4 6 Este 14 Este 0 -- -- 72
2018-10-09 02:00:00 9.1 13 Este 21 Este 0 -- -- 69
2018-10-09 01:00:00 10 12 Este 21 Este 0 -- -- 66
2018-10-09 00:00:00 10.3 14 Este 21 Este 0 -- -- 64
2018-10-08 23:00:00 10.7 12 Este 22 Este 0 -- -- 61
2018-10-08 22:00:00 10.6 9 Este 17 Este 0 -- -- 61
2018-10-08 21:00:00 11.4 9 Este 16 Este 0 -- -- 57
2018-10-08 20:00:00 13.9 11 Nordeste 25 Nordeste 0 -- -- 49
2018-10-08 19:00:00 16.5 17 Nordeste 27 Nordeste 0 -- -- 43
2018-10-08 18:00:00 17.3 16 Nordeste 30 Este 0 -- -- 41
2018-10-08 17:00:00 17.8 16 Nordeste 29 Este 0 -- -- 40
2018-10-08 16:00:00 17.7 11 Nordeste 26 Este 0 -- -- 42
2018-10-08 15:00:00 17.3 17 Nordeste 32 Nordeste 0 -- -- 45
2018-10-08 14:00:00 16.2 13 Este 31 Nordeste 0 -- -- 50
2018-10-08 13:00:00 15.1 21 Este 35 Este 0 -- -- 51
2018-10-08 12:00:00 14.1 23 Este 37 Nordeste 0 -- -- 52
2018-10-08 11:00:00 12.4 23 Este 39 Este 0 -- -- 59
2018-10-08 10:00:00 10.8 24 Este 37 Este 0 -- -- 64
2018-10-08 09:00:00 8.2 18 Este 28 Este 0 -- -- 71
2018-10-08 08:00:00 7.9 17 Este 28 Este 0 -- -- 67
2018-10-08 07:00:00 7.7 16 Este 28 Este 0 -- -- 66
2018-10-08 06:00:00 6.5 17 Este 22 Este 0 -- -- 72
2018-10-08 05:00:00 7.6 14 Este 24 Este 0 -- -- 66
2018-10-08 04:00:00 9.3 14 Este 42 Este 0 -- -- 58
2018-10-08 03:00:00 9.6 25 Este 37 Este 0 -- -- 57
2018-10-08 02:00:00 9.6 17 Este 32 Este 0 -- -- 53
2018-10-08 01:00:00 10 22 Este 33 Este 0 -- -- 52
2018-10-08 00:00:00 9.9 17 Este 27 Este 0 -- -- 51
2018-10-07 23:00:00 9.6 16 Este 26 Este 0 -- -- 50
2018-10-07 22:00:00 9.5 14 Este 22 Este 0 -- -- 51
2018-10-07 21:00:00 10 13 Este 23 Este 0 -- -- 50
2018-10-07 20:00:00 12.3 18 Nordeste 31 Nordeste 0 -- -- 43
2018-10-07 19:00:00 14.5 19 Nordeste 33 Nordeste 0 -- -- 38
2018-10-07 18:00:00 15.6 21 Nordeste 35 Nordeste 0 -- -- 35
2018-10-07 17:00:00 15.9 22 Nordeste 33 Nordeste 0 -- -- 35
2018-10-07 16:00:00 15.8 19 Nordeste 31 Nordeste 0 -- -- 36
2018-10-07 15:00:00 14.8 21 Nordeste 35 Nordeste 0 -- -- 39
2018-10-07 14:00:00 13.4 22 Nordeste 37 Nordeste 0 -- -- 46
2018-10-07 13:00:00 12.3 21 Este 40 Nordeste 0 -- -- 52
2018-10-07 12:00:00 10.4 23 Nordeste 38 Este 0 -- -- 58
2018-10-07 11:00:00 8.3 28 Nordeste 41 Nordeste 0 -- -- 64
2018-10-07 10:00:00 7 24 Nordeste 40 Este 0 -- -- 63
2018-10-07 09:00:00 5.4 24 Este 38 Este 0 -- -- 68
2018-10-07 08:00:00 4.9 22 Este 35 Este 0 -- -- 75
2018-10-07 07:00:00 5.5 23 Este 41 Nordeste 0 -- -- 75
2018-10-07 06:00:00 6.2 21 Este 38 Este 0 -- -- 72
2018-10-07 05:00:00 7.1 20 Nordeste 30 Este 0 -- -- 68
2018-10-07 04:00:00 7.6 18 Este 26 Nordeste 0 -- -- 68
2018-10-07 03:00:00 8.4 16 Este 30 Este 0 -- -- 67
2018-10-07 02:00:00 9.3 17 Nordeste 25 Nordeste 0 -- -- 72
2018-10-07 01:00:00 9.4 6 Este 12 Este 0 -- -- 77
2018-10-07 00:00:00 9.5 2 Este 6 Sur 0 -- -- 76
2018-10-06 23:00:00 10.6 5 Sur 12 Oeste 0 -- -- 75
2018-10-06 22:00:00 13.2 7 Noroeste 14 Sur 0 -- -- 65
2018-10-06 21:00:00 15.3 2 Sudoeste 21 Oeste 0 -- -- 54
2018-10-06 20:00:00 18.3 14 Oeste 35 Oeste 0 -- -- 42
2018-10-06 19:00:00 20.5 23 Oeste 41 Oeste 0 -- -- 36
2018-10-06 18:00:00 22.2 23 Oeste 38 Noroeste 0 -- -- 34
2018-10-06 17:00:00 22.8 26 Oeste 40 Oeste 0 -- -- 32
2018-10-06 16:00:00 23.8 23 Oeste 41 Oeste 0 -- -- 31
2018-10-06 15:00:00 23.6 24 Oeste 37 Oeste 0 -- -- 30
2018-10-06 14:00:00 22.8 22 Oeste 37 Noroeste 0 -- -- 32
2018-10-06 13:00:00 22.6 21 Oeste 34 Oeste 0 -- -- 32
2018-10-06 12:00:00 22 15 Sudoeste 24 Oeste 0 -- -- 31
2018-10-06 11:00:00 20.3 15 Oeste 20 Oeste 0 -- -- 37
2018-10-06 10:00:00 16.3 5 Sudoeste 19 Sur 0 -- -- 48
2018-10-06 09:00:00 11.9 19 Sur 23 Sur 0 -- -- 56
2018-10-06 08:00:00 11.5 18 Sur 22 Sur 0 -- -- 56
2018-10-06 07:00:00 11.6 19 Sur 22 Sur 0 -- -- 55
2018-10-06 06:00:00 11.2 16 Sur 18 Sur 0 -- -- 56
2018-10-06 05:00:00 11.5 12 Sur 19 Sur 0 -- -- 55
2018-10-06 04:00:00 12.7 17 Sur 20 Sur 0 -- -- 51
2018-10-06 03:00:00 12.2 17 Sur 21 Sur 0 -- -- 52
2018-10-06 02:00:00 12.3 18 Sur 21 Sur 0 -- -- 51
2018-10-06 01:00:00 12.7 18 Sur 21 Sur 0 -- -- 51
2018-10-06 00:00:00 12.6 15 Sur 18 Sur 0 -- -- 51
2018-10-05 23:00:00 13.3 12 Sur 15 Sur 0 -- -- 49
2018-10-05 22:00:00 14.4 10 Sur 15 Sur 0 -- -- 46
2018-10-05 21:00:00 16.5 14 Sur 16 Sur 0 -- -- 41
2018-10-05 20:00:00 19.5 10 Sur 22 Sudoeste 0 -- -- 35
2018-10-05 19:00:00 24.1 13 Sudoeste 24 Oeste 0 -- -- 25
2018-10-05 18:00:00 25.3 12 Sudoeste 33 Sur 0 -- -- 23
2018-10-05 17:00:00 25.5 14 Oeste 33 Oeste 0 -- -- 23
2018-10-05 16:00:00 25.6 17 Oeste 32 Sudoeste 0 -- -- 24
2018-10-05 15:00:00 25.5 14 Sur 27 Sudoeste 0 -- -- 24
2018-10-05 14:00:00 25 12 Sur 22 Sudoeste 0 -- -- 25
2018-10-05 13:00:00 24.5 10 Sur 23 Sur 0 -- -- 25
2018-10-05 12:00:00 23.1 5 Noroeste 11 Noroeste 0 -- -- 30
2018-10-05 11:00:00 21.3 2 Noroeste 12 Sur 0 -- -- 34
2018-10-05 10:00:00 16 8 Sur 19 Sur 0 -- -- 44
2018-10-05 09:00:00 11.8 14 Sur 19 Sur 0 -- -- 50
2018-10-05 08:00:00 11.4 16 Sur 21 Sur 0 -- -- 48
2018-10-05 07:00:00 11.5 17 Sur 21 Sur 0 -- -- 46
2018-10-05 06:00:00 11.5 11 Sur 21 Sur 0 -- -- 45
2018-10-05 05:00:00 11.7 18 Sur 21 Sur 0 -- -- 44
2018-10-05 04:00:00 12.2 18 Sur 22 Sur 0 -- -- 46
2018-10-05 03:00:00 12.5 19 Sur 23 Sur 0 -- -- 45
2018-10-05 02:00:00 12.9 18 Sur 24 Sur 0 -- -- 44
2018-10-05 01:00:00 13.8 17 Sur 24 Sur 0 -- -- 45
2018-10-05 00:00:00 14 16 Sur 19 Sur 0 -- -- 46
2018-10-04 23:00:00 14.6 18 Sur 21 Sur 0 -- -- 47
2018-10-04 22:00:00 14.8 15 Sur 20 Sur 0 -- -- 45
2018-10-04 21:00:00 16.2 16 Sur 20 Sur 0 -- -- 41
2018-10-04 20:00:00 20.6 7 Sur 13 Noroeste 0 -- -- 36
2018-10-04 19:00:00 25.2 9 Noroeste 19 Noroeste 0 -- -- 25
2018-10-04 18:00:00 26 10 Noroeste 22 Noroeste 0 -- -- 26
2018-10-04 17:00:00 26.3 7 Noroeste 18 Noroeste 0 -- -- 26
2018-10-04 16:00:00 25.8 7 Noroeste 15 Noroeste 0 -- -- 27
2018-10-04 15:00:00 25 4 Noroeste 18 Noroeste 0 -- -- 29
2018-10-04 14:00:00 24.4 6 Norte 15 Noroeste 0 -- -- 30
2018-10-04 13:00:00 22.9 7 Noroeste 19 Noroeste 0 -- -- 34
2018-10-04 12:00:00 21.3 6 Norte 13 Nordeste 0 -- -- 38
2018-10-04 11:00:00 20.1 5 Norte 9 Norte 0 -- -- 40
2018-10-04 10:00:00 15.6 9 Sur 17 Sur 0 -- -- 51
2018-10-04 09:00:00 11.5 15 Sur 21 Sur 0 -- -- 59
2018-10-04 08:00:00 10.7 14 Sur 21 Sur 0 -- -- 61
2018-10-04 07:00:00 11.2 13 Sur 18 Sur 0 -- -- 60
2018-10-04 06:00:00 11 8 Sur 17 Sur 0 -- -- 61
2018-10-04 05:00:00 12.4 12 Sur 15 Sur 0 -- -- 57
2018-10-04 04:00:00 11.7 5 Sudeste 17 Este 0 -- -- 59
2018-10-04 03:00:00 15.4 10 Este 16 Este 0 -- -- 46
2018-10-04 02:00:00 14.2 12 Este 14 Este 0 -- -- 50
2018-10-04 01:00:00 15.3 10 Este 18 Nordeste 0 -- -- 46
2018-10-04 00:00:00 16.5 12 Este 15 Este 0 -- -- 43
2018-10-03 23:00:00 14.9 7 Sudeste 17 Este 0 -- -- 47
2018-10-03 22:00:00 16.6 12 Este 15 Este 0 -- -- 42
2018-10-03 21:00:00 15 7 Este 9 Este 0 -- -- 45
2018-10-03 20:00:00 20.7 5 Nordeste 16 Nordeste 0 -- -- 34
2018-10-03 19:00:00 23.6 13 Nordeste 24 Nordeste 0 -- -- 28
2018-10-03 18:00:00 25 13 Nordeste 25 Nordeste 0 -- -- 25
2018-10-03 17:00:00 25.3 14 Norte 26 Norte 0 -- -- 25
2018-10-03 16:00:00 25.2 10 Norte 22 Norte 0 -- -- 23
2018-10-03 15:00:00 24.2 10 Noroeste 20 Noroeste 0 -- -- 27
2018-10-03 14:00:00 23.6 12 Norte 18 Norte 0 -- -- 29
2018-10-03 13:00:00 22.6 10 Noroeste 17 Norte 0 -- -- 29
2018-10-03 12:00:00 22.3 9 Norte 15 Norte 0 -- -- 25
2018-10-03 11:00:00 20.7 8 Nordeste 11 Norte 0 -- -- 26
2018-10-03 10:00:00 16.6 5 Nordeste 18 Sur 0 -- -- 34
2018-10-03 09:00:00 11.2 13 Sur 17 Sur 0 -- -- 44
2018-10-03 08:00:00 10.5 8 Sudeste 21 Sur 0 -- -- 41
2018-10-03 07:00:00 11.7 16 Sur 21 Sur 0 -- -- 39
2018-10-03 06:00:00 11.5 15 Sur 20 Sur 0 -- -- 40
2018-10-03 05:00:00 12.3 15 Sur 23 Sur 0 -- -- 38
2018-10-03 04:00:00 12.9 19 Sur 22 Sur 0 -- -- 37
2018-10-03 03:00:00 12.3 14 Sur 18 Sur 0 -- -- 38
2018-10-03 02:00:00 13.1 8 Este 24 Este 0 -- -- 37
2018-10-03 01:00:00 14.2 21 Este 26 Este 0 -- -- 35
2018-10-03 00:00:00 14.9 19 Este 28 Este 0 -- -- 34
2018-10-02 23:00:00 14.9 16 Este 21 Este 0 -- -- 34
2018-10-02 22:00:00 13.5 10 Este 18 Este 0 -- -- 35
2018-10-02 21:00:00 14.9 13 Este 17 Este 0 -- -- 31
2018-10-02 20:00:00 17.2 9 Este 22 Nordeste 0 -- -- 28
2018-10-02 19:00:00 20.2 17 Nordeste 26 Nordeste 0 -- -- 22
2018-10-02 18:00:00 21.5 18 Nordeste 25 Nordeste 0 -- -- 20
2018-10-02 17:00:00 21.8 14 Nordeste 25 Nordeste 0 -- -- 21
2018-10-02 16:00:00 21.5 14 Nordeste 23 Nordeste 0 -- -- 22
2018-10-02 15:00:00 20.1 13 Nordeste 26 Nordeste 0 -- -- 27
2018-10-02 14:00:00 19.2 16 Nordeste 26 Nordeste 0 -- -- 31
2018-10-02 13:00:00 17.7 12 Nordeste 25 Nordeste 0 -- -- 36
2018-10-02 12:00:00 16.7 18 Nordeste 26 Nordeste 0 -- -- 36
2018-10-02 11:00:00 15.4 17 Nordeste 21 Nordeste 0 -- -- 29
2018-10-02 10:00:00 12.5 12 Nordeste 24 Este 0 -- -- 36
2018-10-02 09:00:00 7.9 18 Nordeste 26 Nordeste 0 -- -- 51
2018-10-02 08:00:00 6.2 16 Este 21 Este 0 -- -- 65
2018-10-02 07:00:00 7 13 Nordeste 22 Este 0 -- -- 46
2018-10-02 06:00:00 6.9 13 Nordeste 26 Este 0 -- -- 47
2018-10-02 05:00:00 8 17 Este 24 Nordeste 0 -- -- 42
2018-10-02 04:00:00 11.2 17 Este 27 Este 0 -- -- 28
2018-10-02 03:00:00 12.9 24 Este 40 Este 0 -- -- 38
2018-10-02 02:00:00 12.8 21 Este 34 Este 0 -- -- 47
2018-10-02 01:00:00 13.3 15 Este 31 Este 0 -- -- 43
2018-10-02 00:00:00 13.8 19 Este 33 Este 0 -- -- 39
2018-10-01 23:00:00 13.3 16 Este 26 Este 0 -- -- 42
2018-10-01 22:00:00 13.7 12 Este 31 Este 0 -- -- 42
2018-10-01 21:00:00 15.1 12 Este 28 Este 0 -- -- 39
2018-10-01 20:00:00 17.3 15 Este 31 Nordeste 0 -- -- 36
2018-10-01 19:00:00 19.8 20 Nordeste 36 Nordeste 0 -- -- 33
2018-10-01 18:00:00 20.4 22 Nordeste 36 Nordeste 0 -- -- 32
2018-10-01 17:00:00 20.9 23 Nordeste 39 Nordeste 0 -- -- 33
2018-10-01 16:00:00 20.4 27 Nordeste 42 Nordeste 0 -- -- 34
2018-10-01 15:00:00 19.7 23 Nordeste 39 Nordeste 0 -- -- 35
2018-10-01 14:00:00 18.6 26 Nordeste 39 Nordeste 0 -- -- 39
2018-10-01 13:00:00 17.9 22 Nordeste 33 Nordeste 0 -- -- 38
2018-10-01 12:00:00 15.9 19 Nordeste 35 Nordeste 0 -- -- 46
2018-10-01 11:00:00 13.7 26 Nordeste 32 Nordeste 0 -- -- 54
2018-10-01 10:00:00 11.8 21 Nordeste 27 Nordeste 0 -- -- 57
2018-10-01 09:00:00 8.6 11 Este 22 Nordeste 0 -- -- 66
2018-10-01 08:00:00 9.9 15 Este 20 Este 0 -- -- 55
2018-10-01 07:00:00 9.2 12 Este 16 Este 0 -- -- 59
2018-10-01 06:00:00 9.9 8 Este 11 Este 0 -- -- 58
2018-10-01 05:00:00 10.9 4 Nordeste 9 Sudeste 0 -- -- 60
2018-10-01 04:00:00 10.2 6 Sudeste 13 Este 0 -- -- 63
2018-10-01 03:00:00 10.7 8 Sudeste 13 Sur 0 -- -- 66
2018-10-01 02:00:00 13 6 Sur 16 Sur 0 -- -- 63
2018-10-01 01:00:00 14.4 7 Sur 13 Sur 0 -- -- 60
2018-10-01 00:00:00 15 10 Sur 14 Sur 0 -- -- 55
2018-09-30 23:00:00 15.1 10 Sur 14 Sur 0 -- -- 50
2018-09-30 22:00:00 16.6 13 Sur 20 Sur 0 -- -- 44
2018-09-30 21:00:00 18 10 Sur 14 Sur 0 -- -- 45
2018-09-30 20:00:00 23.2 13 Noroeste 23 Noroeste 0 -- -- 33
2018-09-30 19:00:00 24.9 12 Norte 26 Noroeste 0 -- -- 34
2018-09-30 18:00:00 25.4 12 Noroeste 28 Noroeste 0 -- -- 34
2018-09-30 17:00:00 25.1 10 Noroeste 26 Oeste 0 -- -- 35
2018-09-30 16:00:00 26 14 Oeste 23 Oeste 0 -- -- 34
2018-09-30 15:00:00 25.7 10 Norte 24 Noroeste 0 -- -- 29
2018-09-30 14:00:00 25.3 13 Noroeste 22 Noroeste 0 -- -- 32
2018-09-30 13:00:00 24.6 12 Noroeste 17 Oeste 0 -- -- 37
2018-09-30 12:00:00 24.2 10 Noroeste 15 Noroeste 0 -- -- 38
2018-09-30 11:00:00 22 3 Noroeste 6 Sur 0 -- -- 41
2018-09-30 10:00:00 18.7 8 Sudeste 20 Sur 0 -- -- 48
2018-09-30 09:00:00 15.2 17 Sur 21 Sur 0 -- -- 54
2018-09-30 08:00:00 14.1 19 Sur 23 Sur 0 -- -- 57
2018-09-30 07:00:00 14.2 18 Sur 23 Sur 0 -- -- 56
2018-09-30 06:00:00 14.2 19 Sur 23 Sur 0 -- -- 56
2018-09-30 05:00:00 14.4 12 Sur 23 Sur 0 -- -- 55
2018-09-30 04:00:00 13.5 18 Sur 21 Sur 0 -- -- 59
2018-09-30 03:00:00 15.6 4 Sudoeste 15 Sur 0 -- -- 51
2018-09-30 02:00:00 14.3 13 Sur 14 Sur 0 -- -- 56
2018-09-30 01:00:00 14.7 12 Sudeste 14 Sur 0 -- -- 56
2018-09-30 00:00:00 14.3 7 Sudeste 13 Sudeste 0 -- -- 56
2018-09-29 23:00:00 16 11 Sudeste 15 Sudeste 0 -- -- 49
2018-09-29 22:00:00 16.4 13 Sur 17 Sur 0 -- -- 52
2018-09-29 21:00:00 18.1 14 Sur 18 Sur 0 -- -- 49
2018-09-29 20:00:00 23.8 4 Norte 14 Noroeste 0 -- -- 34
2018-09-29 19:00:00 25.7 7 Norte 19 Norte 0 -- -- 31
2018-09-29 18:00:00 26.5 8 Norte 16 Noroeste 0 -- -- 30
2018-09-29 17:00:00 26 7 Oeste 21 Oeste 0 -- -- 32
2018-09-29 16:00:00 25.5 9 Norte 24 Noroeste 0 -- -- 33
2018-09-29 15:00:00 25.5 12 Noroeste 22 Oeste 0 -- -- 34
2018-09-29 14:00:00 25.6 8 Norte 17 Norte 0 -- -- 32
2018-09-29 13:00:00 24.4 9 Noroeste 17 Oeste 0 -- -- 36
2018-09-29 12:00:00 23.6 5 Noroeste 11 Norte 0 -- -- 37
2018-09-29 11:00:00 21.4 3 Noroeste 9 Oeste 0 -- -- 43
2018-09-29 10:00:00 18 3 Sudoeste 16 Sur 0 -- -- 51
2018-09-29 09:00:00 15.1 13 Sur 21 Sur 0 -- -- 53
2018-09-29 08:00:00 12.5 7 Sur 16 Sur 0 -- -- 59
2018-09-29 07:00:00 13.6 10 Sur 15 Sur 0 -- -- 56
2018-09-29 06:00:00 14.1 11 Sudeste 15 Sur 0 -- -- 56
2018-09-29 05:00:00 14 12 Sudeste 15 Sur 0 -- -- 58
2018-09-29 04:00:00 13.8 10 Sudeste 13 Sur 0 -- -- 59
2018-09-29 03:00:00 14 9 Sudeste 17 Sudeste 0 -- -- 59
2018-09-29 02:00:00 15.6 8 Sudeste 15 Nordeste 0 -- -- 50
2018-09-29 01:00:00 13.9 8 Sudeste 10 Sudeste 0 -- -- 56
2018-09-29 00:00:00 14.3 8 Sudeste 13 Sudeste 0 -- -- 55
2018-09-28 23:00:00 15.3 7 Sudeste 14 Este 0 -- -- 53
2018-09-28 22:00:00 19 11 Este 14 Este 0 -- -- 42
2018-09-28 21:00:00 19.5 8 Este 10 Este 0 -- -- 44
2018-09-28 20:00:00 23.3 6 Nordeste 20 Nordeste 0 -- -- 38
2018-09-28 19:00:00 25.8 8 Nordeste 21 Este 0 -- -- 32
2018-09-28 18:00:00 26.5 10 Norte 23 Norte 0 -- -- 31
2018-09-28 17:00:00 26.2 10 Nordeste 25 Nordeste 0 -- -- 31
2018-09-28 16:00:00 25.5 10 Nordeste 23 Nordeste 0 -- -- 35
2018-09-28 15:00:00 25 9 Norte 26 Norte 0 -- -- 38
2018-09-28 14:00:00 24.8 7 Noroeste 17 Noroeste 0 -- -- 41
2018-09-28 13:00:00 24 6 Norte 13 Norte 0 -- -- 43
2018-09-28 12:00:00 22.6 7 Noroeste 12 Noroeste 0 -- -- 50
2018-09-28 11:00:00 21.5 2 Noroeste 4 Norte 0 -- -- 52
2018-09-28 10:00:00 18.4 3 Sur 8 Sur 0 -- -- 62
2018-09-28 09:00:00 14.4 6 Sur 14 Sur 0 -- -- 74
2018-09-28 08:00:00 13.4 5 Sudeste 13 Sur 0 -- -- 76
2018-09-28 07:00:00 12.7 11 Sur 13 Sur 0 -- -- 79
2018-09-28 06:00:00 12.7 4 Sudeste 12 Sur 0 -- -- 78
2018-09-28 05:00:00 13.4 10 Sur 13 Sur 0 -- -- 76
2018-09-28 04:00:00 13.3 9 Sur 13 Sudeste 0 -- -- 78
2018-09-28 03:00:00 14.3 9 Sur 14 Sur 0 -- -- 75
2018-09-28 02:00:00 15.1 12 Sur 17 Sur 0 -- -- 76
2018-09-28 01:00:00 15.7 15 Sur 18 Sur 0 -- -- 74
2018-09-28 00:00:00 16.3 14 Sur 17 Sur 0 -- -- 71
2018-09-27 23:00:00 16.9 11 Sur 14 Sur 0 -- -- 67
2018-09-27 22:00:00 17.7 12 Sur 15 Sur 0 -- -- 63
2018-09-27 21:00:00 18.3 12 Sur 15 Sur 0 -- -- 61
2018-09-27 20:00:00 22.6 5 Este 14 Sudeste 0 -- -- 49
2018-09-27 19:00:00 25.3 10 Nordeste 15 Nordeste 0 -- -- 43
2018-09-27 18:00:00 24.7 12 Norte 26 Este 0 -- -- 43
2018-09-27 17:00:00 26.1 8 Este 24 Este 0 -- -- 39
2018-09-27 16:00:00 25.5 17 Sudeste 27 Sudeste 0 -- -- 41
2018-09-27 15:00:00 25.8 14 Nordeste 28 Nordeste 0 -- -- 40
2018-09-27 14:00:00 25.5 11 Nordeste 22 Este 0 -- -- 40
2018-09-27 13:00:00 24.1 12 Nordeste 28 Nordeste 0 -- -- 45
2018-09-27 12:00:00 22.9 11 Este 19 Nordeste 0 -- -- 50
2018-09-27 11:00:00 21.1 13 Nordeste 19 Nordeste 0 -- -- 53
2018-09-27 10:00:00 19.6 11 Este 19 Este 0 -- -- 57
2018-09-27 09:00:00 15.8 7 Sur 9 Este 0 -- -- 72
2018-09-27 08:00:00 15 7 Este 9 Este 0 -- -- 77
2018-09-27 07:00:00 15.8 6 Sudeste 12 Sur 0 -- -- 72
2018-09-27 06:00:00 18.1 3 Noroeste 7 Sur 0 -- -- 64
2018-09-27 05:00:00 19.2 5 Norte 15 Noroeste 0 -- -- 58
2018-09-27 04:00:00 20.1 5 Noroeste 24 Sudeste 0 -- -- 54
2018-09-27 03:00:00 21 13 Sudeste 24 Sudeste 0 -- -- 53
2018-09-27 02:00:00 21.8 14 Sudeste 37 Sudeste 0 -- -- 50
2018-09-27 01:00:00 21.7 27 Sudeste 38 Sudeste 0 -- -- 42
2018-09-27 00:00:00 21.8 22 Sudeste 32 Sudeste 0 -- -- 40
2018-09-26 23:00:00 19 8 Sur 22 Sur 0 -- -- 54
2018-09-26 22:00:00 18.6 14 Sur 20 Sur 0 -- -- 58
2018-09-26 21:00:00 19.4 2 Sudoeste 35 Sudeste 0 -- -- 55
2018-09-26 20:00:00 21.8 26 Sudeste 49 Este 0 -- -- 40
2018-09-26 19:00:00 20.2 34 Este 54 Sudeste 0 -- -- 58
2018-09-26 18:00:00 24.6 21 Sudeste 29 Sudeste 0 -- -- 46
2018-09-26 17:00:00 26.1 11 Sudeste 32 Sudeste 0 -- -- 43
2018-09-26 16:00:00 27 16 Sur 32 Sudeste 0 -- -- 44
2018-09-26 15:00:00 27.1 9 Norte 18 Noroeste 0 -- -- 37
2018-09-26 14:00:00 25.9 8 Noroeste 15 Norte 0 -- -- 38
2018-09-26 13:00:00 24.7 8 Noroeste 16 Noroeste 0 -- -- 41
2018-09-26 12:00:00 22.5 9 Noroeste 13 Noroeste 0 -- -- 44
2018-09-26 11:00:00 21.5 5 Noroeste 11 Sur 0 -- -- 50
2018-09-26 10:00:00 19.6 10 Sur 18 Sur 0 -- -- 57
2018-09-26 09:00:00 15.7 12 Sur 18 Sur 0 -- -- 65
2018-09-26 08:00:00 16.1 16 Sur 18 Sur 0 -- -- 62
2018-09-26 07:00:00 15 7 Sudeste 12 Sur 0 -- -- 63
2018-09-26 06:00:00 15.6 8 Sur 16 Sur 0 -- -- 59
2018-09-26 05:00:00 17.6 17 Sur 21 Sur 0 -- -- 55
2018-09-26 04:00:00 17.6 18 Sur 21 Sur 0 -- -- 54
2018-09-26 03:00:00 17.6 13 Sur 22 Sur 0 -- -- 53
2018-09-26 02:00:00 17.8 19 Sur 22 Sur 0 -- -- 52
2018-09-26 01:00:00 17.7 17 Sur 19 Sur 0 -- -- 52
2018-09-26 00:00:00 17.6 12 Sur 15 Sur 0 -- -- 52
2018-09-25 23:00:00 16.8 9 Sudeste 15 Sur 0 -- -- 55
2018-09-25 22:00:00 16.9 12 Sur 13 Sur 0 -- -- 54
2018-09-25 21:00:00 19.5 7 Este 9 Este 0 -- -- 45
2018-09-25 20:00:00 23.9 6 Nordeste 13 Norte 0 -- -- 36
2018-09-25 19:00:00 26.4 9 Norte 18 Norte 0 -- -- 32
2018-09-25 18:00:00 27.6 8 Norte 21 Noroeste 0 -- -- 30
2018-09-25 17:00:00 27.9 7 Norte 18 Noroeste 0 -- -- 30
2018-09-25 16:00:00 27.3 9 Norte 16 Noroeste 0 -- -- 30
2018-09-25 15:00:00 26 8 Norte 15 Norte 0 -- -- 30
2018-09-25 14:00:00 24.7 9 Norte 15 Noroeste 0 -- -- 33
2018-09-25 13:00:00 23.1 7 Norte 14 Noroeste 0 -- -- 34
2018-09-25 12:00:00 19.9 6 Norte 12 Norte 0 -- -- 36
2018-09-25 11:00:00 16.3 5 Noroeste 11 Noroeste 0 -- -- 46
2018-09-25 10:00:00 14 3 Oeste 14 Este 0 -- -- 61
2018-09-25 09:00:00 11.9 4 Sudeste 10 Oeste 0 -- -- 74
2018-09-25 08:00:00 10.3 5 Este 14 Este 0 -- -- 76
2018-09-25 07:00:00 10 10 Nordeste 12 Nordeste 0 -- -- 69
2018-09-25 06:00:00 10.8 3 Nordeste 13 Nordeste 0 -- -- 70
2018-09-25 05:00:00 12 11 Nordeste 17 Nordeste 0 -- -- 69
2018-09-25 04:00:00 14.6 12 Nordeste 19 Nordeste 0 -- -- 66
2018-09-25 03:00:00 16.2 15 Nordeste 20 Nordeste 0 -- -- 60
2018-09-25 02:00:00 18 17 Este 24 Este 0 -- -- 55
2018-09-25 01:00:00 18.6 17 Este 22 Este 0 -- -- 54
2018-09-25 00:00:00 18.7 18 Este 29 Este 0 -- -- 55
2018-09-24 23:00:00 19.7 20 Este 30 Este 0 -- -- 53
2018-09-24 22:00:00 21 18 Este 28 Este 0 -- -- 51
2018-09-24 21:00:00 21.6 11 Este 20 Nordeste 0 -- -- 52
2018-09-24 20:00:00 25.1 10 Nordeste 27 Nordeste 0 -- -- 43
2018-09-24 19:00:00 27.3 16 Nordeste 23 Nordeste 0 -- -- 38
2018-09-24 18:00:00 28.1 15 Nordeste 24 Nordeste 0 -- -- 37
2018-09-24 17:00:00 28.6 13 Nordeste 30 Nordeste 0 -- -- 37
2018-09-24 16:00:00 28.5 15 Nordeste 29 Nordeste 0 -- -- 38
2018-09-24 15:00:00 28 15 Nordeste 26 Este 0 -- -- 38
2018-09-24 14:00:00 27.7 15 Nordeste 25 Nordeste 0 -- -- 38
2018-09-24 13:00:00 26.3 13 Nordeste 23 Nordeste 0 -- -- 40
2018-09-24 12:00:00 25 15 Nordeste 24 Este 0 -- -- 45
2018-09-24 11:00:00 23.3 16 Este 24 Este 0 -- -- 44
2018-09-24 10:00:00 20.1 10 Este 17 Este 0 -- -- 52
2018-09-24 09:00:00 17.8 6 Este 17 Este 0 -- -- 53
2018-09-24 08:00:00 16.3 13 Este 15 Este 0 -- -- 53
2018-09-24 07:00:00 16.3 7 Este 13 Este 0 -- -- 52
2018-09-24 06:00:00 16.6 8 Nordeste 18 Este 0 -- -- 51
2018-09-24 05:00:00 17.1 15 Este 19 Este 0 -- -- 47
2018-09-24 04:00:00 19.4 13 Sudeste 17 Este 0 -- -- 42
2018-09-24 03:00:00 19.1 10 Este 13 Este 0 -- -- 41
2018-09-24 02:00:00 15.7 9 Sudeste 12 Este 0 -- -- 48
2018-09-24 01:00:00 16.9 9 Sudeste 14 Sudeste 0 -- -- 45
2018-09-24 00:00:00 17 9 Sudeste 13 Sudeste 0 -- -- 45
2018-09-23 23:00:00 17.7 9 Sudeste 14 Sudeste 0 -- -- 45
2018-09-23 22:00:00 19.3 12 Sur 15 Sur 0 -- -- 41
2018-09-23 21:00:00 20.5 10 Sur 17 Norte 0 -- -- 42
2018-09-23 20:00:00 27.1 9 Noroeste 23 Noroeste 0 -- -- 30
2018-09-23 19:00:00 29.3 9 Noroeste 20 Noroeste 0 -- -- 25
2018-09-23 18:00:00 29.9 7 Norte 19 Norte 0 -- -- 25
2018-09-23 17:00:00 30.3 5 Oeste 21 Noroeste 0 -- -- 24
2018-09-23 16:00:00 29.9 10 Norte 27 Noroeste 0 -- -- 27
2018-09-23 15:00:00 29.7 6 Norte 21 Noroeste 0 -- -- 27
2018-09-23 14:00:00 29.1 7 Noroeste 21 Oeste 0 -- -- 28
2018-09-23 13:00:00 28.3 5 Noroeste 17 Noroeste 0 -- -- 30
2018-09-23 12:00:00 27.8 7 Nordeste 13 Nordeste 0 -- -- 29
2018-09-23 11:00:00 26.5 7 Este 12 Este 0 -- -- 30
2018-09-23 10:00:00 21.9 4 Sudeste 13 Sur 0 -- -- 45
2018-09-23 09:00:00 17 10 Sur 15 Sur 0 -- -- 51
2018-09-23 08:00:00 15.6 13 Sur 17 Sur 0 -- -- 52
2018-09-23 07:00:00 15.6 13 Sur 17 Sur 0 -- -- 50
2018-09-23 06:00:00 15.4 14 Sur 16 Sur 0 -- -- 53
2018-09-23 05:00:00 15.3 12 Sur 14 Sur 0 -- -- 53
2018-09-23 04:00:00 15.5 10 Sudeste 15 Sur 0 -- -- 54
2018-09-23 03:00:00 15.8 12 Sudeste 17 Sur 0 -- -- 53
2018-09-23 02:00:00 16.8 15 Sur 17 Sur 0 -- -- 54
2018-09-23 01:00:00 17.4 12 Sur 17 Sur 0 -- -- 54
2018-09-23 00:00:00 18.1 14 Sur 17 Sur 0 -- -- 52
2018-09-22 23:00:00 18.1 14 Sur 17 Sur 0 -- -- 51
2018-09-22 22:00:00 18.3 12 Sur 17 Sur 0 -- -- 50
2018-09-22 21:00:00 19.9 13 Sur 16 Sudeste 0 -- -- 47
2018-09-22 20:00:00 26.7 8 Nordeste 12 Norte 0 -- -- 29
2018-09-22 19:00:00 29 2 Nordeste 18 Oeste 0 -- -- 28
2018-09-22 18:00:00 29 9 Noroeste 22 Oeste 0 -- -- 30
2018-09-22 17:00:00 29 11 Oeste 25 Noroeste 0 -- -- 31
2018-09-22 16:00:00 28.8 7 Norte 26 Noroeste 0 -- -- 29
2018-09-22 15:00:00 28.3 14 Noroeste 26 Oeste 0 -- -- 31
2018-09-22 14:00:00 27.6 13 Noroeste 26 Oeste 0 -- -- 33
2018-09-22 13:00:00 26.8 14 Oeste 24 Noroeste 0 -- -- 33
2018-09-22 12:00:00 26.4 6 Noroeste 17 Noroeste 0 -- -- 31
2018-09-22 11:00:00 25.1 6 Oeste 13 Sur 0 -- -- 31
2018-09-22 10:00:00 20.1 13 Sur 23 Sur 0 -- -- 46
2018-09-22 09:00:00 16 20 Sur 24 Sur 0 -- -- 55
2018-09-22 08:00:00 15 20 Sur 23 Sur 0 -- -- 57
2018-09-22 07:00:00 15.3 19 Sur 22 Sur 0 -- -- 56
2018-09-22 06:00:00 15.7 14 Sur 18 Sur 0 -- -- 55
2018-09-22 05:00:00 13 8 Sudeste 13 Este 0 -- -- 64
2018-09-22 04:00:00 13.4 11 Sudeste 15 Sur 0 -- -- 63
2018-09-22 03:00:00 13.9 8 Sudeste 13 Sur 0 -- -- 61
2018-09-22 02:00:00 12.8 7 Sudeste 15 Sur 0 -- -- 61
2018-09-22 01:00:00 14.5 8 Sudeste 14 Sur 0 -- -- 53
2018-09-22 00:00:00 15.1 13 Sur 17 Sur 0 -- -- 51
2018-09-21 23:00:00 16 13 Sur 17 Sur 0 -- -- 50
2018-09-21 22:00:00 16.8 15 Sur 18 Sur 0 -- -- 51
2018-09-21 21:00:00 17.9 14 Sur 18 Sur 0 -- -- 55
2018-09-21 20:00:00 23 5 Noroeste 15 Noroeste 0 -- -- 40
2018-09-21 19:00:00 24.8 9 Noroeste 18 Noroeste 0 -- -- 37
2018-09-21 18:00:00 25.2 8 Noroeste 19 Oeste 0 -- -- 37
2018-09-21 17:00:00 25.7 10 Noroeste 25 Noroeste 0 -- -- 37
2018-09-21 16:00:00 25.6 12 Noroeste 23 Noroeste 0 -- -- 36
2018-09-21 15:00:00 25.4 9 Noroeste 15 Noroeste 0 -- -- 39
2018-09-21 14:00:00 23.9 6 Norte 15 Norte 0 -- -- 42
2018-09-21 13:00:00 22.8 7 Noroeste 15 Norte 0 -- -- 45
2018-09-21 12:00:00 22 5 Nordeste 13 Nordeste 0 -- -- 46
2018-09-21 11:00:00 20 8 Nordeste 13 Nordeste 0 -- -- 52
2018-09-21 10:00:00 16.9 0 Calma 11 Sur 0 -- -- 62
2018-09-21 09:00:00 12.7 5 Sudeste 12 Sur 0 -- -- 69
2018-09-21 08:00:00 12.1 12 Sur 21 Sur 0 -- -- 69
2018-09-21 07:00:00 11.5 9 Sur 20 Sur 0 -- -- 66
2018-09-21 06:00:00 12.6 17 Sur 21 Sur 0 -- -- 67
2018-09-21 05:00:00 12 18 Sur 21 Sur 0 -- -- 67
2018-09-21 04:00:00 12.1 6 Sur 16 Sur 0 -- -- 65
2018-09-21 03:00:00 12.7 10 Sur 16 Sudeste 0 -- -- 64
2018-09-21 02:00:00 13.4 13 Sur 17 Sur 0 -- -- 70
2018-09-21 01:00:00 14.1 14 Sur 20 Sur 0 -- -- 71
2018-09-21 00:00:00 14.9 8 Sur 13 Sur 0 -- -- 69
2018-09-20 23:00:00 16.5 8 Sudoeste 15 Sudoeste 0 -- -- 62
2018-09-20 22:00:00 18.9 10 Sudoeste 19 Sudoeste 0 -- -- 51
2018-09-20 21:00:00 20.2 9 Sudoeste 19 Oeste 0 -- -- 54
2018-09-20 20:00:00 24.3 11 Oeste 26 Oeste 0 -- -- 44
2018-09-20 19:00:00 26.8 13 Sudoeste 29 Sudoeste 0 -- -- 37
2018-09-20 18:00:00 27.5 17 Sudoeste 27 Oeste 0 -- -- 37
2018-09-20 17:00:00 24.5 16 Sudeste 27 Sudoeste 0 -- -- 54
2018-09-20 16:00:00 26.9 14 Sudoeste 30 Oeste 0 -- -- 39
2018-09-20 15:00:00 26.3 16 Sudoeste 30 Oeste 0 -- -- 40
2018-09-20 14:00:00 27.1 14 Sudoeste 32 Sur 0 -- -- 36
2018-09-20 13:00:00 26.7 16 Sur 28 Sur 0 -- -- 36
2018-09-20 12:00:00 26.3 10 Sur 20 Sur 0 -- -- 35
2018-09-20 11:00:00 25.1 8 Sudoeste 17 Sudoeste 0 -- -- 35
2018-09-20 10:00:00 21.4 3 Sur 15 Sur 0 -- -- 46
2018-09-20 09:00:00 16.3 14 Sur 19 Sur 0 -- -- 59
2018-09-20 08:00:00 15.9 13 Sur 17 Sur 0 -- -- 59
2018-09-20 07:00:00 14.4 12 Sudeste 15 Sur 0 -- -- 62
2018-09-20 06:00:00 14.6 15 Sur 17 Sur 0 -- -- 62
2018-09-20 05:00:00 14.7 9 Sur 15 Sur 0 -- -- 63
2018-09-20 04:00:00 14.9 13 Sur 16 Sudeste 0 -- -- 64
2018-09-20 03:00:00 14.7 14 Sur 19 Sur 0 -- -- 68
2018-09-20 02:00:00 15.1 17 Sur 21 Sur 0 -- -- 66
2018-09-20 01:00:00 15.7 12 Sur 20 Sur 0 -- -- 62
2018-09-20 00:00:00 16.2 15 Sur 18 Sur 0 -- -- 54